KSPF

Black Hills-Clyde Ice Field Airport

Spearfish, South Dakota, USA
METAR KSPF 231015Z AUTO 22004KT 10SM CLR 02/M01 A3022 RMK AO2 PWINO
Observed Flight Rules
Oct-23 @ 10:15 UTC (16 minutes ago) Visual Flight Rules
Wind Visibility Clouds
220° at 4 knots 10 miles
  • Clear skies
Temperatures Readings
Current 2°C / 36°F
Dewpoint -1°C / 30°F
Humidity 81%
Altimeter 30.22" Hg
Pressure 1023 hPa
Elevation 1188
METAR KSPF 231015Z AUTO 22004KT 10SM CLR 02/M01 A3022 RMK AO2 PWINO
Observed Flight Rules
Oct-23 @ 10:15 UTC
(16 minutes ago)
VFR
Wind Visibility
220° at 4 knots 10 miles
Clouds
  • Clear skies
Temperature Dewpoint
2°C / 36°F -1°C / 30°F
Humidity Altimeter Pressure
81% 30.22" Hg 1023 hPa